sensor_id;sensor_type;location;lat;lon;timestamp;temperature;humidity
64869;DHT22;51349;52.424;10.840;2022-12-18T00:04:06;-10.00;99.90
64869;DHT22;51349;52.424;10.840;2022-12-18T00:09:09;-10.10;99.90
64869;DHT22;51349;52.424;10.840;2022-12-18T00:14:11;-10.10;99.90
64869;DHT22;51349;52.424;10.840;2022-12-18T00:19:13;-10.20;99.90
64869;DHT22;51349;52.424;10.840;2022-12-18T00:24:14;-10.20;99.90
64869;DHT22;51349;52.424;10.840;2022-12-18T00:29:15;-10.30;99.90
64869;DHT22;51349;52.424;10.840;2022-12-18T00:34:16;-10.20;99.90
64869;DHT22;51349;52.424;10.840;2022-12-18T00:39:16;-10.30;99.90
64869;DHT22;51349;52.424;10.840;2022-12-18T00:44:18;-10.40;99.90
64869;DHT22;51349;52.424;10.840;2022-12-18T00:49:20;-10.40;99.90
64869;DHT22;51349;52.424;10.840;2022-12-18T00:54:20;-10.40;99.90
64869;DHT22;51349;52.424;10.840;2022-12-18T00:59:21;-10.50;99.90
64869;DHT22;51349;52.424;10.840;2022-12-18T01:04:22;-10.60;99.90
64869;DHT22;51349;52.424;10.840;2022-12-18T01:09:22;-10.60;99.90
64869;DHT22;51349;52.424;10.840;2022-12-18T01:14:23;-10.50;99.90
64869;DHT22;51349;52.424;10.840;2022-12-18T01:19:23;-10.50;99.90
64869;DHT22;51349;52.424;10.840;2022-12-18T01:24:24;-10.50;99.90
64869;DHT22;51349;52.424;10.840;2022-12-18T01:29:25;-10.60;99.90
64869;DHT22;51349;52.424;10.840;2022-12-18T01:34:25;-10.70;99.90
64869;DHT22;51349;52.424;10.840;2022-12-18T01:39:26;-10.80;99.90
64869;DHT22;51349;52.424;10.840;2022-12-18T01:45:01;-10.60;99.90
64869;DHT22;51349;52.424;10.840;2022-12-18T01:50:30;-10.60;99.90
64869;DHT22;51349;52.424;10.840;2022-12-18T01:55:52;-10.80;99.90
64869;DHT22;51349;52.424;10.840;2022-12-18T02:00:55;-10.90;99.90
64869;DHT22;51349;52.424;10.840;2022-12-18T02:11:06;-11.00;99.90
64869;DHT22;51349;52.424;10.840;2022-12-18T02:26:37;-11.20;99.90
64869;DHT22;51349;52.424;10.840;2022-12-18T02:31:43;-11.30;99.90
64869;DHT22;51349;52.424;10.840;2022-12-18T02:36:46;-11.20;99.90
64869;DHT22;51349;52.424;10.840;2022-12-18T02:41:48;-11.20;99.90
64869;DHT22;51349;52.424;10.840;2022-12-18T02:46:51;-11.10;99.90
64869;DHT22;51349;52.424;10.840;2022-12-18T03:02:55;-11.20;99.90
64869;DHT22;51349;52.424;10.840;2022-12-18T03:08:10;-11.30;99.90
64869;DHT22;51349;52.424;10.840;2022-12-18T03:13:19;-11.40;99.90
64869;DHT22;51349;52.424;10.840;2022-12-18T03:23:45;-11.40;99.90
64869;DHT22;51349;52.424;10.840;2022-12-18T03:28:54;-11.40;99.90
64869;DHT22;51349;52.424;10.840;2022-12-18T03:33:59;-11.50;99.90
64869;DHT22;51349;52.424;10.840;2022-12-18T03:39:01;-11.40;99.90
64869;DHT22;51349;52.424;10.840;2022-12-18T03:44:26;-11.50;99.90
64869;DHT22;51349;52.424;10.840;2022-12-18T03:54:35;-11.60;99.90
64869;DHT22;51349;52.424;10.840;2022-12-18T03:59:38;-11.50;99.90
64869;DHT22;51349;52.424;10.840;2022-12-18T04:04:40;-11.40;99.90
64869;DHT22;51349;52.424;10.840;2022-12-18T04:09:43;-11.40;99.90
64869;DHT22;51349;52.424;10.840;2022-12-18T04:14:45;-11.40;99.90
64869;DHT22;51349;52.424;10.840;2022-12-18T04:19:46;-11.40;99.90
64869;DHT22;51349;52.424;10.840;2022-12-18T04:24:47;-11.50;99.90
64869;DHT22;51349;52.424;10.840;2022-12-18T04:29:48;-11.40;99.90
64869;DHT22;51349;52.424;10.840;2022-12-18T04:34:48;-11.50;99.90
64869;DHT22;51349;52.424;10.840;2022-12-18T04:39:49;-11.60;99.90
64869;DHT22;51349;52.424;10.840;2022-12-18T04:44:49;-11.60;99.90
64869;DHT22;51349;52.424;10.840;2022-12-18T04:49:50;-11.50;99.90
64869;DHT22;51349;52.424;10.840;2022-12-18T04:54:51;-11.60;99.90
64869;DHT22;51349;52.424;10.840;2022-12-18T04:59:51;-11.70;99.90
64869;DHT22;51349;52.424;10.840;2022-12-18T05:04:52;-11.70;99.90
64869;DHT22;51349;52.424;10.840;2022-12-18T05:09:52;-11.80;99.90
64869;DHT22;51349;52.424;10.840;2022-12-18T05:14:53;-11.80;99.90
64869;DHT22;51349;52.424;10.840;2022-12-18T05:19:53;-11.90;99.90
64869;DHT22;51349;52.424;10.840;2022-12-18T05:24:54;-11.90;99.90
64869;DHT22;51349;52.424;10.840;2022-12-18T05:29:55;-11.80;99.90
64869;DHT22;51349;52.424;10.840;2022-12-18T05:34:55;-12.00;99.90
64869;DHT22;51349;52.424;10.840;2022-12-18T05:39:57;-11.90;99.90
64869;DHT22;51349;52.424;10.840;2022-12-18T05:44:58;-11.90;99.90
64869;DHT22;51349;52.424;10.840;2022-12-18T05:49:58;-11.80;99.90
64869;DHT22;51349;52.424;10.840;2022-12-18T05:54:59;-11.90;99.90
64869;DHT22;51349;52.424;10.840;2022-12-18T05:59:59;-12.00;99.90
64869;DHT22;51349;52.424;10.840;2022-12-18T06:05:00;-12.00;99.90
64869;DHT22;51349;52.424;10.840;2022-12-18T06:10:00;-12.00;99.90
64869;DHT22;51349;52.424;10.840;2022-12-18T06:15:01;-12.00;99.90
64869;DHT22;51349;52.424;10.840;2022-12-18T06:20:03;-12.00;99.90
64869;DHT22;51349;52.424;10.840;2022-12-18T06:25:04;-12.20;99.90
64869;DHT22;51349;52.424;10.840;2022-12-18T06:30:07;-12.10;99.90
64869;DHT22;51349;52.424;10.840;2022-12-18T06:35:08;-12.00;99.90
64869;DHT22;51349;52.424;10.840;2022-12-18T06:40:08;-12.10;99.90
64869;DHT22;51349;52.424;10.840;2022-12-18T06:45:09;-12.00;99.90
64869;DHT22;51349;52.424;10.840;2022-12-18T06:50:11;-12.10;99.90
64869;DHT22;51349;52.424;10.840;2022-12-18T06:55:12;-12.10;99.90
64869;DHT22;51349;52.424;10.840;2022-12-18T07:00:13;-12.30;99.90
64869;DHT22;51349;52.424;10.840;2022-12-18T07:05:14;-12.40;99.90
64869;DHT22;51349;52.424;10.840;2022-12-18T07:10:14;-12.30;99.90
64869;DHT22;51349;52.424;10.840;2022-12-18T07:15:15;-12.40;99.90
64869;DHT22;51349;52.424;10.840;2022-12-18T07:20:16;-12.30;99.90
64869;DHT22;51349;52.424;10.840;2022-12-18T07:25:16;-12.20;99.90
64869;DHT22;51349;52.424;10.840;2022-12-18T07:30:17;-12.20;99.90
64869;DHT22;51349;52.424;10.840;2022-12-18T07:35:18;-12.10;99.90
64869;DHT22;51349;52.424;10.840;2022-12-18T07:40:19;-12.30;99.90
64869;DHT22;51349;52.424;10.840;2022-12-18T07:45:19;-12.30;99.90
64869;DHT22;51349;52.424;10.840;2022-12-18T07:50:20;-12.20;99.90
64869;DHT22;51349;52.424;10.840;2022-12-18T07:55:21;-12.20;99.90
64869;DHT22;51349;52.424;10.840;2022-12-18T08:00:21;-12.20;99.90
64869;DHT22;51349;52.424;10.840;2022-12-18T08:05:22;-12.20;99.90
64869;DHT22;51349;52.424;10.840;2022-12-18T08:10:23;-12.00;99.90
64869;DHT22;51349;52.424;10.840;2022-12-18T08:15:23;-11.90;99.90
64869;DHT22;51349;52.424;10.840;2022-12-18T08:20:24;-11.80;99.90
64869;DHT22;51349;52.424;10.840;2022-12-18T08:25:24;-11.80;99.90
64869;DHT22;51349;52.424;10.840;2022-12-18T08:30:25;-11.60;99.90
64869;DHT22;51349;52.424;10.840;2022-12-18T08:35:25;-11.20;99.90
64869;DHT22;51349;52.424;10.840;2022-12-18T08:40:27;-11.20;99.90
64869;DHT22;51349;52.424;10.840;2022-12-18T08:45:27;-11.00;99.90
64869;DHT22;51349;52.424;10.840;2022-12-18T08:50:28;-11.00;99.90
64869;DHT22;51349;52.424;10.840;2022-12-18T08:55:29;-10.90;99.90
64869;DHT22;51349;52.424;10.840;2022-12-18T09:00:29;-10.90;99.90
64869;DHT22;51349;52.424;10.840;2022-12-18T09:05:30;-10.60;99.90
64869;DHT22;51349;52.424;10.840;2022-12-18T09:10:31;-10.20;99.90
64869;DHT22;51349;52.424;10.840;2022-12-18T09:15:32;-9.70;99.90
64869;DHT22;51349;52.424;10.840;2022-12-18T09:20:33;-9.40;99.90
64869;DHT22;51349;52.424;10.840;2022-12-18T09:25:34;-9.10;99.90
64869;DHT22;51349;52.424;10.840;2022-12-18T09:30:40;-9.00;99.90
64869;DHT22;51349;52.424;10.840;2022-12-18T09:35:42;-8.80;99.90
64869;DHT22;51349;52.424;10.840;2022-12-18T09:40:46;-8.50;99.90
64869;DHT22;51349;52.424;10.840;2022-12-18T09:45:51;-8.10;99.90
64869;DHT22;51349;52.424;10.840;2022-12-18T09:50:58;-6.80;99.90
64869;DHT22;51349;52.424;10.840;2022-12-18T09:56:01;-5.70;99.90
64869;DHT22;51349;52.424;10.840;2022-12-18T10:01:10;-4.30;99.90
64869;DHT22;51349;52.424;10.840;2022-12-18T10:17:02;-0.30;99.90
64869;DHT22;51349;52.424;10.840;2022-12-18T10:27:23;-1.90;99.90
64869;DHT22;51349;52.424;10.840;2022-12-18T10:32:27;-3.30;99.90
64869;DHT22;51349;52.424;10.840;2022-12-18T10:37:29;-3.70;99.90
64869;DHT22;51349;52.424;10.840;2022-12-18T10:42:30;-3.80;99.90
64869;DHT22;51349;52.424;10.840;2022-12-18T10:47:30;-4.20;99.90
64869;DHT22;51349;52.424;10.840;2022-12-18T10:52:33;-4.20;99.90
64869;DHT22;51349;52.424;10.840;2022-12-18T10:57:37;-4.10;99.90
64869;DHT22;51349;52.424;10.840;2022-12-18T11:02:38;-4.10;99.90
64869;DHT22;51349;52.424;10.840;2022-12-18T11:07:49;-4.30;99.90
64869;DHT22;51349;52.424;10.840;2022-12-18T11:12:51;-4.30;99.90
64869;DHT22;51349;52.424;10.840;2022-12-18T11:17:52;-4.20;99.90
64869;DHT22;51349;52.424;10.840;2022-12-18T11:23:03;-3.60;99.90
64869;DHT22;51349;52.424;10.840;2022-12-18T11:28:34;-3.60;99.90
64869;DHT22;51349;52.424;10.840;2022-12-18T11:33:37;-2.90;99.90
64869;DHT22;51349;52.424;10.840;2022-12-18T11:38:44;-1.90;99.90
64869;DHT22;51349;52.424;10.840;2022-12-18T11:43:55;-1.40;99.90
64869;DHT22;51349;52.424;10.840;2022-12-18T11:49:01;-1.20;99.90
64869;DHT22;51349;52.424;10.840;2022-12-18T11:54:14;-1.30;99.90
64869;DHT22;51349;52.424;10.840;2022-12-18T12:31:42;1.30;99.90
64869;DHT22;51349;52.424;10.840;2022-12-18T12:42:33;3.80;99.90
64869;DHT22;51349;52.424;10.840;2022-12-18T12:47:54;4.50;99.90
64869;DHT22;51349;52.424;10.840;2022-12-18T12:52:57;4.80;99.90
64869;DHT22;51349;52.424;10.840;2022-12-18T12:58:18;5.90;99.90
64869;DHT22;51349;52.424;10.840;2022-12-18T13:08:53;2.20;99.90
64869;DHT22;51349;52.424;10.840;2022-12-18T13:13:56;1.30;99.90
64869;DHT22;51349;52.424;10.840;2022-12-18T13:18:57;0.20;99.90
64869;DHT22;51349;52.424;10.840;2022-12-18T13:24:22;0.00;99.90
64869;DHT22;51349;52.424;10.840;2022-12-18T13:34:42;-1.20;99.90
64869;DHT22;51349;52.424;10.840;2022-12-18T13:39:42;-1.80;99.90
64869;DHT22;51349;52.424;10.840;2022-12-18T13:44:43;-2.00;99.90
64869;DHT22;51349;52.424;10.840;2022-12-18T13:49:47;-2.10;99.90
64869;DHT22;51349;52.424;10.840;2022-12-18T13:54:54;-2.40;99.90
64869;DHT22;51349;52.424;10.840;2022-12-18T13:59:57;-2.70;99.90
64869;DHT22;51349;52.424;10.840;2022-12-18T14:04:57;-2.90;99.90
64869;DHT22;51349;52.424;10.840;2022-12-18T14:10:00;-3.00;99.90
64869;DHT22;51349;52.424;10.840;2022-12-18T14:15:02;-3.10;99.90
64869;DHT22;51349;52.424;10.840;2022-12-18T14:20:03;-3.30;99.90
64869;DHT22;51349;52.424;10.840;2022-12-18T14:35:24;-3.60;99.90
64869;DHT22;51349;52.424;10.840;2022-12-18T14:40:25;-3.60;99.90
64869;DHT22;51349;52.424;10.840;2022-12-18T14:45:36;-3.80;99.90
64869;DHT22;51349;52.424;10.840;2022-12-18T14:50:38;-3.80;99.90
64869;DHT22;51349;52.424;10.840;2022-12-18T14:55:46;-3.90;99.90
64869;DHT22;51349;52.424;10.840;2022-12-18T15:00:47;-3.90;99.90
64869;DHT22;51349;52.424;10.840;2022-12-18T15:05:48;-4.00;99.90
64869;DHT22;51349;52.424;10.840;2022-12-18T15:10:49;-4.10;99.90
64869;DHT22;51349;52.424;10.840;2022-12-18T15:15:50;-4.10;99.90
64869;DHT22;51349;52.424;10.840;2022-12-18T15:20:56;-4.10;99.90
64869;DHT22;51349;52.424;10.840;2022-12-18T15:26:01;-4.20;99.90
64869;DHT22;51349;52.424;10.840;2022-12-18T15:36:29;-4.20;99.90
64869;DHT22;51349;52.424;10.840;2022-12-18T15:41:35;-4.30;99.90
64869;DHT22;51349;52.424;10.840;2022-12-18T15:46:35;-4.40;99.90
64869;DHT22;51349;52.424;10.840;2022-12-18T15:51:36;-4.40;99.90
64869;DHT22;51349;52.424;10.840;2022-12-18T15:56:37;-4.40;99.90
64869;DHT22;51349;52.424;10.840;2022-12-18T16:01:57;-4.40;99.90
64869;DHT22;51349;52.424;10.840;2022-12-18T16:06:57;-4.30;99.90
64869;DHT22;51349;52.424;10.840;2022-12-18T16:11:59;-4.20;99.90
64869;DHT22;51349;52.424;10.840;2022-12-18T16:17:02;-4.20;99.90
64869;DHT22;51349;52.424;10.840;2022-12-18T16:22:03;-4.30;99.90
64869;DHT22;51349;52.424;10.840;2022-12-18T16:27:03;-4.40;99.90
64869;DHT22;51349;52.424;10.840;2022-12-18T16:32:04;-4.30;99.90
64869;DHT22;51349;52.424;10.840;2022-12-18T16:37:06;-4.20;99.90
64869;DHT22;51349;52.424;10.840;2022-12-18T16:47:14;-4.40;99.90
64869;DHT22;51349;52.424;10.840;2022-12-18T16:52:15;-4.50;99.90
64869;DHT22;51349;52.424;10.840;2022-12-18T16:57:17;-4.50;99.90
64869;DHT22;51349;52.424;10.840;2022-12-18T17:02:23;-4.40;99.90
64869;DHT22;51349;52.424;10.840;2022-12-18T17:07:25;-4.60;99.90
64869;DHT22;51349;52.424;10.840;2022-12-18T17:12:26;-4.50;99.90
64869;DHT22;51349;52.424;10.840;2022-12-18T17:17:27;-4.50;99.90
64869;DHT22;51349;52.424;10.840;2022-12-18T17:22:27;-4.50;99.90
64869;DHT22;51349;52.424;10.840;2022-12-18T17:27:28;-4.50;99.90
64869;DHT22;51349;52.424;10.840;2022-12-18T17:32:28;-4.50;99.90
64869;DHT22;51349;52.424;10.840;2022-12-18T17:37:29;-4.40;99.90
64869;DHT22;51349;52.424;10.840;2022-12-18T17:42:29;-4.50;99.90
64869;DHT22;51349;52.424;10.840;2022-12-18T17:47:30;-4.50;99.90
64869;DHT22;51349;52.424;10.840;2022-12-18T17:52:32;-4.50;99.90
64869;DHT22;51349;52.424;10.840;2022-12-18T17:57:33;-4.40;99.90
64869;DHT22;51349;52.424;10.840;2022-12-18T18:02:33;-4.30;99.90
64869;DHT22;51349;52.424;10.840;2022-12-18T18:07:34;-4.30;99.90
64869;DHT22;51349;52.424;10.840;2022-12-18T18:12:35;-4.30;99.90
64869;DHT22;51349;52.424;10.840;2022-12-18T18:17:54;-4.20;99.90
64869;DHT22;51349;52.424;10.840;2022-12-18T18:22:55;-4.20;99.90
64869;DHT22;51349;52.424;10.840;2022-12-18T18:27:56;-4.20;99.90
64869;DHT22;51349;52.424;10.840;2022-12-18T18:32:56;-4.10;99.90
64869;DHT22;51349;52.424;10.840;2022-12-18T18:37:57;-4.20;99.90
64869;DHT22;51349;52.424;10.840;2022-12-18T18:42:58;-4.10;99.90
64869;DHT22;51349;52.424;10.840;2022-12-18T18:47:58;-4.10;99.90
64869;DHT22;51349;52.424;10.840;2022-12-18T18:52:59;-4.10;99.90
64869;DHT22;51349;52.424;10.840;2022-12-18T18:57:59;-4.10;99.90
64869;DHT22;51349;52.424;10.840;2022-12-18T19:03:00;-4.00;99.90
64869;DHT22;51349;52.424;10.840;2022-12-18T19:08:00;-4.00;99.90
64869;DHT22;51349;52.424;10.840;2022-12-18T19:13:01;-4.10;99.90
64869;DHT22;51349;52.424;10.840;2022-12-18T19:18:21;-4.00;99.90
64869;DHT22;51349;52.424;10.840;2022-12-18T19:23:22;-4.00;99.90
64869;DHT22;51349;52.424;10.840;2022-12-18T19:28:23;-3.90;99.90
64869;DHT22;51349;52.424;10.840;2022-12-18T19:33:30;-3.90;99.90
64869;DHT22;51349;52.424;10.840;2022-12-18T19:38:30;-3.80;99.90
64869;DHT22;51349;52.424;10.840;2022-12-18T19:43:31;-3.90;99.90
64869;DHT22;51349;52.424;10.840;2022-12-18T19:48:35;-3.80;99.90
64869;DHT22;51349;52.424;10.840;2022-12-18T19:53:35;-3.80;99.90
64869;DHT22;51349;52.424;10.840;2022-12-18T19:58:37;-3.70;99.90
64869;DHT22;51349;52.424;10.840;2022-12-18T20:03:37;-3.70;99.90
64869;DHT22;51349;52.424;10.840;2022-12-18T20:08:39;-3.60;99.90
64869;DHT22;51349;52.424;10.840;2022-12-18T20:13:41;-3.50;99.90
64869;DHT22;51349;52.424;10.840;2022-12-18T20:18:42;-3.50;99.90
64869;DHT22;51349;52.424;10.840;2022-12-18T20:23:46;-3.40;99.90
64869;DHT22;51349;52.424;10.840;2022-12-18T20:28:46;-3.40;99.90
64869;DHT22;51349;52.424;10.840;2022-12-18T20:33:47;-3.40;99.90
64869;DHT22;51349;52.424;10.840;2022-12-18T20:38:48;-3.30;99.90
64869;DHT22;51349;52.424;10.840;2022-12-18T20:43:49;-3.40;99.90
64869;DHT22;51349;52.424;10.840;2022-12-18T20:48:49;-3.30;99.90
64869;DHT22;51349;52.424;10.840;2022-12-18T20:53:50;-3.20;99.90
64869;DHT22;51349;52.424;10.840;2022-12-18T20:58:55;-3.30;99.90
64869;DHT22;51349;52.424;10.840;2022-12-18T21:03:56;-3.30;99.90
64869;DHT22;51349;52.424;10.840;2022-12-18T21:08:56;-3.20;99.90
64869;DHT22;51349;52.424;10.840;2022-12-18T21:13:57;-3.10;99.90
64869;DHT22;51349;52.424;10.840;2022-12-18T21:18:58;-3.00;99.90
64869;DHT22;51349;52.424;10.840;2022-12-18T21:23:58;-3.00;99.90
64869;DHT22;51349;52.424;10.840;2022-12-18T21:29:01;-3.00;99.90
64869;DHT22;51349;52.424;10.840;2022-12-18T21:34:04;-3.00;99.90
64869;DHT22;51349;52.424;10.840;2022-12-18T21:39:05;-3.00;99.90
64869;DHT22;51349;52.424;10.840;2022-12-18T21:44:06;-3.00;99.90
64869;DHT22;51349;52.424;10.840;2022-12-18T21:49:08;-2.90;99.90
64869;DHT22;51349;52.424;10.840;2022-12-18T21:54:09;-3.00;99.90
64869;DHT22;51349;52.424;10.840;2022-12-18T21:59:16;-3.00;99.90
64869;DHT22;51349;52.424;10.840;2022-12-18T22:04:18;-3.00;99.90
64869;DHT22;51349;52.424;10.840;2022-12-18T22:09:22;-2.80;99.90
64869;DHT22;51349;52.424;10.840;2022-12-18T22:14:23;-2.80;99.90
64869;DHT22;51349;52.424;10.840;2022-12-18T22:19:24;-2.90;99.90
64869;DHT22;51349;52.424;10.840;2022-12-18T22:24:25;-3.00;99.90
64869;DHT22;51349;52.424;10.840;2022-12-18T22:29:28;-3.00;99.90
64869;DHT22;51349;52.424;10.840;2022-12-18T22:34:47;-2.90;99.90
64869;DHT22;51349;52.424;10.840;2022-12-18T22:39:48;-2.90;99.90
64869;DHT22;51349;52.424;10.840;2022-12-18T22:44:48;-2.90;99.90
64869;DHT22;51349;52.424;10.840;2022-12-18T22:49:49;-2.90;99.90
64869;DHT22;51349;52.424;10.840;2022-12-18T22:54:49;-2.80;99.90
64869;DHT22;51349;52.424;10.840;2022-12-18T22:59:50;-2.80;99.90
64869;DHT22;51349;52.424;10.840;2022-12-18T23:04:51;-2.80;99.90
64869;DHT22;51349;52.424;10.840;2022-12-18T23:09:51;-2.80;99.90
64869;DHT22;51349;52.424;10.840;2022-12-18T23:14:52;-2.80;99.90
64869;DHT22;51349;52.424;10.840;2022-12-18T23:19:53;-2.90;99.90
64869;DHT22;51349;52.424;10.840;2022-12-18T23:24:54;-2.90;99.90
64869;DHT22;51349;52.424;10.840;2022-12-18T23:29:54;-2.90;99.90
64869;DHT22;51349;52.424;10.840;2022-12-18T23:34:55;-2.90;99.90
64869;DHT22;51349;52.424;10.840;2022-12-18T23:39:55;-2.90;99.90
64869;DHT22;51349;52.424;10.840;2022-12-18T23:44:56;-2.80;99.90
64869;DHT22;51349;52.424;10.840;2022-12-18T23:49:57;-2.80;99.90
64869;DHT22;51349;52.424;10.840;2022-12-18T23:54:57;-2.80;99.90
64869;DHT22;51349;52.424;10.840;2022-12-18T23:59:58;-2.80;99.90
